Time;durP1;ratioP1;P1;durP2;ratioP2;P2;SDS_P1;SDS_P2;PMS_P1;PMS_P2;Temp;Humidity;BMP_temperature;BMP_pressure;BME280_temperature;BME280_humidity;BME280_pressure;Samples;Min_cycle;Max_cycle;Signal;HPM_P1;HPM_P2
2023/07/12 00:01:14;;;;;;;3.47;3.17;;;24.80;68.00;;;;;;4987373;28;20584;-70
2023/07/12 00:03:40;;;;;;;3.40;3.13;;;24.80;68.00;;;;;;4993142;28;20217;-70
2023/07/12 00:06:17;;;;;;;3.28;2.97;;;24.80;68.00;;;;;;4974254;28;20184;-70
2023/07/12 00:08:44;;;;;;;3.40;3.10;;;24.80;68.00;;;;;;5006688;28;20189;-70
2023/07/12 00:11:21;;;;;;;3.20;2.95;;;24.80;68.10;;;;;;5010536;28;20185;-70
2023/07/12 00:13:48;;;;;;;3.45;3.15;;;24.80;68.20;;;;;;4979149;28;20200;-67
2023/07/12 00:16:44;;;;;;;2.92;2.72;;;24.80;68.10;;;;;;4994608;28;20208;-69
2023/07/12 00:19:14;;;;;;;3.45;2.72;;;24.80;68.30;;;;;;4981094;28;20670;-70
2023/07/12 00:21:40;;;;;;;3.90;2.83;;;24.80;68.30;;;;;;4978239;28;20220;-69
2023/07/12 00:24:06;;;;;;;3.33;3.03;;;24.80;68.30;;;;;;4974660;28;20217;-70
2023/07/12 00:26:35;;;;;;;3.38;3.13;;;24.80;68.20;;;;;;4966874;28;20197;-70
2023/07/12 00:29:06;;;;;;;2.78;2.58;;;24.80;68.20;;;;;;4987744;28;20185;-70
2023/07/12 00:31:34;;;;;;;3.55;3.17;;;24.80;68.20;;;;;;4986179;28;20596;-69
2023/07/12 00:34:03;;;;;;;2.80;2.60;;;24.80;68.20;;;;;;4970358;28;20200;-68
2023/07/12 00:36:32;;;;;;;2.95;2.63;;;24.80;68.20;;;;;;4970589;28;20305;-69
2023/07/12 00:39:00;;;;;;;3.22;2.92;;;24.80;68.20;;;;;;4985910;28;20275;-70
2023/07/12 00:41:50;;;;;;;3.60;3.30;;;24.80;68.20;;;;;;4978737;28;20213;-70
2023/07/12 00:44:42;;;;;;;2.78;2.58;;;24.80;68.30;;;;;;5008599;28;20225;-69
2023/07/12 00:47:13;;;;;;;2.95;2.75;;;24.80;68.30;;;;;;4972809;28;20559;-70
2023/07/12 00:49:39;;;;;;;3.25;2.88;;;24.80;68.40;;;;;;4991406;28;20219;-69
2023/07/12 00:52:18;;;;;;;3.40;3.10;;;24.80;68.50;;;;;;4977855;28;20205;-70
2023/07/12 00:54:59;;;;;;;2.80;2.60;;;24.80;68.30;;;;;;4991297;28;20195;-70
2023/07/12 00:57:29;;;;;;;2.88;2.67;;;24.80;68.30;;;;;;5009869;28;20193;-70
2023/07/12 01:00:10;;;;;;;3.00;2.80;;;24.80;68.30;;;;;;4993363;28;20657;-70
2023/07/12 01:02:40;;;;;;;3.13;2.83;;;24.80;68.40;;;;;;4990201;28;20223;-68
2023/07/12 01:05:06;;;;;;;3.08;2.78;;;24.80;68.30;;;;;;4997885;28;20193;-69
2023/07/12 01:07:34;;;;;;;3.10;2.80;;;24.80;68.20;;;;;;4989892;28;20192;-69
2023/07/12 01:10:00;;;;;;;3.08;2.78;;;24.80;68.30;;;;;;4977378;28;20567;-70
2023/07/12 01:12:26;;;;;;;3.20;2.90;;;24.80;68.40;;;;;;5009614;28;20201;-70
2023/07/12 01:14:52;;;;;;;2.83;2.63;;;24.80;68.50;;;;;;4992853;28;20189;-70
2023/07/12 01:17:21;;;;;;;3.10;2.80;;;24.80;68.50;;;;;;4977238;28;20199;-70
2023/07/12 01:19:47;;;;;;;3.38;2.92;;;24.80;69.30;;;;;;4988920;28;20185;-69
2023/07/12 01:22:13;;;;;;;2.83;2.63;;;24.80;68.40;;;;;;4971572;28;20243;-70
2023/07/12 01:24:39;;;;;;;2.90;2.70;;;24.80;68.50;;;;;;4989131;28;20190;-70
2023/07/12 01:27:20;;;;;;;3.10;2.80;;;24.70;68.40;;;;;;4986821;28;20192;-70
2023/07/12 01:29:48;;;;;;;3.08;2.78;;;24.70;68.40;;;;;;4991598;28;20188;-70
2023/07/12 01:32:15;;;;;;;3.63;2.72;;;24.80;68.50;;;;;;4983658;28;20221;-70
2023/07/12 01:34:45;;;;;;;2.92;2.60;;;24.70;68.40;;;;;;4990714;28;20181;-69
2023/07/12 01:37:11;;;;;;;3.35;2.63;;;24.70;68.40;;;;;;4976869;28;20189;-70
2023/07/12 01:39:37;;;;;;;3.08;2.88;;;24.80;68.50;;;;;;4981157;28;20200;-68
2023/07/12 01:42:03;;;;;;;3.13;2.88;;;24.70;68.40;;;;;;4957356;28;20217;-70
2023/07/12 01:44:29;;;;;;;2.92;2.55;;;24.80;68.60;;;;;;4955343;28;20218;-70
2023/07/12 01:46:56;;;;;;;2.65;2.45;;;24.80;68.50;;;;;;4983820;28;20192;-69
2023/07/12 01:49:22;;;;;;;3.10;2.47;;;24.70;68.40;;;;;;4979732;28;20189;-70
2023/07/12 01:51:48;;;;;;;2.97;2.55;;;24.70;68.50;;;;;;4973159;28;20214;-70
2023/07/12 01:54:14;;;;;;;3.17;2.88;;;24.70;68.60;;;;;;4956420;28;20739;-70
2023/07/12 01:56:40;;;;;;;2.72;2.47;;;24.70;68.40;;;;;;4982330;28;20193;-69
2023/07/12 01:59:06;;;;;;;2.90;2.60;;;24.70;68.60;;;;;;4968832;28;20189;-70
2023/07/12 02:01:32;;;;;;;3.33;3.03;;;24.80;68.70;;;;;;5002058;28;20267;-70
2023/07/12 02:03:59;;;;;;;2.67;2.47;;;24.70;68.60;;;;;;4972284;28;20217;-70
2023/07/12 02:06:25;;;;;;;3.10;2.80;;;24.70;68.50;;;;;;4980887;28;20208;-70
2023/07/12 02:08:50;;;;;;;3.08;2.80;;;24.70;68.70;;;;;;4987120;28;20192;-70
2023/07/12 02:11:16;;;;;;;3.20;2.70;;;24.70;68.60;;;;;;4990896;28;20712;-70
2023/07/12 02:13:42;;;;;;;3.80;2.75;;;24.70;68.60;;;;;;5000066;28;20247;-67
2023/07/12 02:16:08;;;;;;;3.50;3.20;;;24.70;68.60;;;;;;4991861;28;20213;-70
2023/07/12 02:18:35;;;;;;;2.80;2.60;;;24.70;68.60;;;;;;5008341;28;20279;-70
2023/07/12 02:21:01;;;;;;;3.10;2.78;;;24.70;68.60;;;;;;4991810;28;20703;-70
2023/07/12 02:23:26;;;;;;;3.05;2.80;;;24.80;68.70;;;;;;4993573;28;20225;-70
2023/07/12 02:25:52;;;;;;;3.42;3.13;;;24.70;68.60;;;;;;4990953;28;20185;-69
2023/07/12 02:28:18;;;;;;;2.95;2.75;;;24.70;68.60;;;;;;4977084;28;20191;-69
2023/07/12 02:30:46;;;;;;;2.92;2.55;;;24.70;68.50;;;;;;4999765;28;20205;-71
2023/07/12 02:33:12;;;;;;;2.90;2.67;;;24.70;68.60;;;;;;4996261;28;20244;-70
2023/07/12 02:35:41;;;;;;;4.22;2.40;;;24.70;68.60;;;;;;4981019;28;20240;-70
2023/07/12 02:38:07;;;;;;;2.80;2.60;;;24.70;68.70;;;;;;5000222;28;20284;-70
2023/07/12 02:40:33;;;;;;;3.78;2.63;;;24.70;68.60;;;;;;4976556;28;20198;-68
2023/07/12 02:42:59;;;;;;;2.80;2.60;;;24.70;68.60;;;;;;4979034;28;20210;-70
2023/07/12 02:45:25;;;;;;;3.13;2.83;;;24.70;68.70;;;;;;4985732;28;20211;-69
2023/07/12 02:47:51;;;;;;;2.83;2.38;;;24.70;68.60;;;;;;4973382;28;20192;-70
2023/07/12 02:50:17;;;;;;;2.70;2.50;;;24.70;68.60;;;;;;4991671;28;20189;-67
2023/07/12 02:52:43;;;;;;;2.72;2.53;;;24.70;68.70;;;;;;4991773;28;20239;-70
2023/07/12 02:55:09;;;;;;;2.60;2.40;;;24.70;68.70;;;;;;4995720;28;20189;-69
2023/07/12 02:57:35;;;;;;;2.97;2.78;;;24.70;68.80;;;;;;5004016;28;20189;-69
2023/07/12 03:00:03;;;;;;;2.70;2.50;;;24.70;68.70;;;;;;4996741;28;20194;-69
2023/07/12 03:02:30;;;;;;;2.60;2.40;;;24.70;68.70;;;;;;4993083;28;20217;-69
2023/07/12 03:04:56;;;;;;;2.83;2.63;;;24.70;68.70;;;;;;4955200;28;20190;-69
2023/07/12 03:07:21;;;;;;;2.80;2.60;;;24.70;68.70;;;;;;4955669;28;20252;-70
2023/07/12 03:09:48;;;;;;;2.75;2.55;;;24.70;68.70;;;;;;4971647;28;20573;-69
2023/07/12 03:12:13;;;;;;;3.13;2.45;;;24.70;68.70;;;;;;4984404;28;20217;-70
2023/07/12 03:14:39;;;;;;;3.45;2.90;;;24.60;68.60;;;;;;4983330;28;20262;-69
2023/07/12 03:17:05;;;;;;;2.30;2.20;;;24.60;68.60;;;;;;4999011;28;20193;-69
2023/07/12 03:19:35;;;;;;;2.50;2.30;;;24.70;68.70;;;;;;4991002;28;20288;-69
2023/07/12 03:22:01;;;;;;;3.08;2.60;;;24.70;68.70;;;;;;4996624;28;20278;-69
2023/07/12 03:24:27;;;;;;;2.42;2.22;;;24.60;68.70;;;;;;4998938;28;20220;-69
2023/07/12 03:26:53;;;;;;;2.47;2.28;;;24.70;68.70;;;;;;4973192;28;20193;-69
2023/07/12 03:29:19;;;;;;;2.90;2.70;;;24.60;68.60;;;;;;4999101;28;20189;-70
2023/07/12 03:31:44;;;;;;;3.25;2.60;;;24.60;68.60;;;;;;4979935;28;20212;-69
2023/07/12 03:34:10;;;;;;;2.63;2.42;;;24.60;68.70;;;;;;4978987;28;20197;-70
2023/07/12 03:36:37;;;;;;;2.95;2.55;;;24.70;68.80;;;;;;4986683;28;20197;-69
2023/07/12 03:39:03;;;;;;;2.63;2.40;;;24.70;68.80;;;;;;4998864;28;20252;-70
2023/07/12 03:41:29;;;;;;;2.63;2.42;;;24.60;68.80;;;;;;4990817;28;20213;-70
2023/07/12 03:43:54;;;;;;;2.65;2.40;;;24.60;68.70;;;;;;4963697;28;20221;-69
2023/07/12 03:46:20;;;;;;;2.97;2.67;;;24.60;68.80;;;;;;4985602;28;20632;-70
2023/07/12 03:48:46;;;;;;;3.13;2.50;;;24.70;68.80;;;;;;4980935;28;20189;-69
2023/07/12 03:51:14;;;;;;;2.55;2.35;;;24.60;68.80;;;;;;4995197;28;20676;-70
2023/07/12 03:53:40;;;;;;;2.53;2.33;;;24.60;69.60;;;;;;4979743;28;20284;-70
2023/07/12 03:56:06;;;;;;;2.70;2.42;;;24.60;68.90;;;;;;4991268;28;20221;-69
2023/07/12 03:58:35;;;;;;;2.50;2.30;;;24.60;68.80;;;;;;5011471;28;20227;-69
2023/07/12 04:01:05;;;;;;;2.42;2.22;;;24.60;68.80;;;;;;4993291;28;20193;-70
2023/07/12 04:03:32;;;;;;;2.70;2.42;;;24.60;68.90;;;;;;4973493;28;20216;-69
2023/07/12 04:05:57;;;;;;;2.60;2.40;;;24.60;68.90;;;;;;4975899;28;20197;-69
2023/07/12 04:08:23;;;;;;;2.60;2.35;;;24.60;68.90;;;;;;4980372;28;20193;-70
2023/07/12 04:10:57;;;;;;;2.88;2.67;;;24.60;68.90;;;;;;4991369;28;20189;-69
2023/07/12 04:13:25;;;;;;;2.60;2.40;;;24.60;68.90;;;;;;4999411;28;20676;-70
2023/07/12 04:16:01;;;;;;;2.63;2.42;;;24.60;68.90;;;;;;4975450;28;20208;-69
2023/07/12 04:18:28;;;;;;;2.63;2.42;;;24.60;68.90;;;;;;4994324;28;20196;-69
2023/07/12 04:20:55;;;;;;;2.50;2.30;;;24.60;68.90;;;;;;4985406;28;20197;-69
2023/07/12 04:23:21;;;;;;;2.67;2.47;;;24.60;68.90;;;;;;4984597;28;20213;-69
2023/07/12 04:25:47;;;;;;;2.50;2.30;;;24.60;69.00;;;;;;4985867;28;20205;-68
2023/07/12 04:28:13;;;;;;;2.80;2.60;;;24.60;69.00;;;;;;4966778;28;20190;-70
2023/07/12 04:30:39;;;;;;;2.35;2.10;;;24.60;69.00;;;;;;4982843;28;20196;-69
2023/07/12 04:33:05;;;;;;;2.72;2.25;;;24.60;69.00;;;;;;4974523;28;20220;-69
2023/07/12 04:35:37;;;;;;;2.55;2.35;;;24.60;69.10;;;;;;4974296;28;20198;-70
2023/07/12 04:38:03;;;;;;;2.50;2.30;;;24.60;69.10;;;;;;4982509;28;20198;-70
2023/07/12 04:40:29;;;;;;;2.80;2.60;;;24.60;69.10;;;;;;4982888;28;20236;-70
2023/07/12 04:42:54;;;;;;;2.30;2.10;;;24.60;69.20;;;;;;4976522;28;20221;-70
2023/07/12 04:45:20;;;;;;;2.75;2.33;;;24.60;69.20;;;;;;4988977;28;20228;-70
2023/07/12 04:47:46;;;;;;;2.55;2.35;;;24.60;69.20;;;;;;4990715;28;20190;-70
2023/07/12 04:50:13;;;;;;;3.15;2.85;;;24.60;69.20;;;;;;5002319;28;20632;-70
2023/07/12 04:52:39;;;;;;;3.42;2.65;;;24.60;69.30;;;;;;4993932;28;20636;-70
2023/07/12 04:55:20;;;;;;;2.42;2.20;;;24.60;70.10;;;;;;4976919;28;20185;-70
2023/07/12 04:57:46;;;;;;;3.47;2.10;;;24.60;69.20;;;;;;4979123;28;20236;-70
2023/07/12 05:00:13;;;;;;;2.40;2.20;;;24.60;69.20;;;;;;4969389;28;20614;-70
2023/07/12 05:02:40;;;;;;;2.30;2.10;;;24.60;69.30;;;;;;4987897;28;20328;-71
2023/07/12 05:05:06;;;;;;;2.50;2.30;;;24.60;69.30;;;;;;4989040;28;20190;-70
2023/07/12 05:07:32;;;;;;;2.40;2.20;;;24.60;69.40;;;;;;4996193;28;20188;-69
2023/07/12 05:09:57;;;;;;;2.22;2.03;;;24.60;69.30;;;;;;4976298;28;20213;-70
2023/07/12 05:12:23;;;;;;;2.45;2.25;;;24.60;69.50;;;;;;4982145;28;20313;-71
2023/07/12 05:14:49;;;;;;;2.60;2.40;;;24.60;69.50;;;;;;4989796;28;20195;-71
2023/07/12 05:17:15;;;;;;;2.40;2.20;;;24.60;69.50;;;;;;4993468;28;20250;-71
2023/07/12 05:19:41;;;;;;;2.80;2.40;;;24.60;69.60;;;;;;5002547;28;20244;-70
2023/07/12 05:22:06;;;;;;;2.78;2.40;;;24.60;69.60;;;;;;4981659;28;20221;-71
2023/07/12 05:24:33;;;;;;;2.40;2.20;;;24.60;69.60;;;;;;4979293;28;20229;-71
2023/07/12 05:26:59;;;;;;;2.40;2.20;;;24.60;69.60;;;;;;4989950;28;20221;-70
2023/07/12 05:29:25;;;;;;;2.58;2.30;;;24.60;69.60;;;;;;4966577;28;20288;-70
2023/07/12 05:31:50;;;;;;;2.28;2.15;;;24.60;69.60;;;;;;4989587;28;20216;-71
2023/07/12 05:34:16;;;;;;;2.72;2.45;;;24.60;69.70;;;;;;4989093;28;20252;-70
2023/07/12 05:36:42;;;;;;;2.50;2.30;;;24.60;69.80;;;;;;4973458;28;20661;-71
2023/07/12 05:39:08;;;;;;;2.67;2.00;;;24.60;69.70;;;;;;4965045;28;20256;-71
2023/07/12 05:41:34;;;;;;;2.47;2.28;;;24.60;69.70;;;;;;4981702;28;20212;-71
2023/07/12 05:43:59;;;;;;;3.20;2.55;;;24.60;69.70;;;;;;4990313;28;20248;-70
2023/07/12 05:46:27;;;;;;;3.17;2.35;;;24.60;69.70;;;;;;4982545;28;20185;-71
2023/07/12 05:48:53;;;;;;;2.67;2.45;;;24.60;70.50;;;;;;4989523;28;20197;-71
2023/07/12 05:51:19;;;;;;;2.75;2.00;;;24.60;69.70;;;;;;4985423;28;20220;-71
2023/07/12 05:53:45;;;;;;;2.90;2.30;;;24.60;69.70;;;;;;4989756;28;20193;-70
2023/07/12 05:56:10;;;;;;;2.30;2.10;;;24.60;69.70;;;;;;4975859;28;20204;-71
2023/07/12 05:58:36;;;;;;;2.40;2.20;;;24.60;69.80;;;;;;4989932;28;20569;-72
2023/07/12 06:01:02;;;;;;;2.22;1.90;;;24.60;69.80;;;;;;4983644;28;20197;-72
2023/07/12 06:03:32;;;;;;;2.45;2.25;;;24.60;69.90;;;;;;4988624;28;20275;-71
2023/07/12 06:05:58;;;;;;;5.45;2.95;;;24.60;69.90;;;;;;4981293;28;20248;-71
2023/07/12 06:08:27;;;;;;;3.72;2.22;;;24.60;69.90;;;;;;4992009;28;20239;-70
2023/07/12 06:10:52;;;;;;;2.50;2.20;;;24.60;69.90;;;;;;4992601;28;20182;-69
2023/07/12 06:13:19;;;;;;;3.20;2.83;;;24.60;69.90;;;;;;4989310;28;20197;-70
2023/07/12 06:15:44;;;;;;;3.55;2.38;;;24.60;70.00;;;;;;4980614;28;20209;-71
2023/07/12 06:18:10;;;;;;;2.45;2.25;;;24.60;70.00;;;;;;4991105;28;20192;-70
2023/07/12 06:20:36;;;;;;;2.58;2.38;;;24.60;70.10;;;;;;5008546;28;20201;-70
2023/07/12 06:23:02;;;;;;;3.33;2.38;;;24.60;70.00;;;;;;4990323;28;20218;-70
2023/07/12 06:25:28;;;;;;;2.25;2.05;;;24.60;70.10;;;;;;4975466;28;20192;-70
2023/07/12 06:27:55;;;;;;;2.15;2.00;;;24.60;70.20;;;;;;4992013;28;20595;-69
2023/07/12 06:30:21;;;;;;;3.08;2.72;;;24.60;70.10;;;;;;4996671;28;20185;-70
2023/07/12 06:32:47;;;;;;;3.00;2.50;;;24.60;70.10;;;;;;4987992;28;20248;-70
2023/07/12 06:35:12;;;;;;;2.50;2.25;;;24.60;70.20;;;;;;4991413;28;20228;-70
2023/07/12 06:37:38;;;;;;;3.55;2.38;;;24.60;70.30;;;;;;4988759;28;20200;-70
2023/07/12 06:40:05;;;;;;;2.83;2.60;;;24.60;70.40;;;;;;4965788;28;20196;-70
2023/07/12 06:42:32;;;;;;;2.60;2.40;;;24.60;70.30;;;;;;4980683;28;20218;-71
2023/07/12 06:44:58;;;;;;;3.13;2.20;;;24.60;70.20;;;;;;4986061;28;20216;-70
2023/07/12 06:47:24;;;;;;;3.00;2.10;;;24.70;70.40;;;;;;5008235;28;20193;-70
2023/07/12 06:49:50;;;;;;;3.00;2.47;;;24.60;70.30;;;;;;4984480;28;20189;-71
2023/07/12 06:52:15;;;;;;;3.53;2.42;;;24.60;70.20;;;;;;4988501;28;20210;-70
2023/07/12 06:54:41;;;;;;;4.07;2.90;;;24.70;70.40;;;;;;4982970;28;20190;-70
2023/07/12 06:57:07;;;;;;;2.85;2.20;;;24.60;70.20;;;;;;4988252;28;20275;-70
2023/07/12 06:59:33;;;;;;;2.85;2.53;;;24.70;70.40;;;;;;4993636;28;20190;-70
2023/07/12 07:01:59;;;;;;;3.30;2.53;;;24.60;70.40;;;;;;4975356;28;20212;-70
2023/07/12 07:04:24;;;;;;;3.30;2.30;;;24.70;70.50;;;;;;4991097;28;20217;-70
2023/07/12 07:06:50;;;;;;;3.25;2.80;;;24.70;70.60;;;;;;4991493;28;20193;-70
2023/07/12 07:09:16;;;;;;;3.53;2.72;;;24.70;70.60;;;;;;4982983;28;20181;-71
2023/07/12 07:11:42;;;;;;;4.38;2.60;;;24.70;70.60;;;;;;4985234;28;20252;-70
2023/07/12 07:14:08;;;;;;;2.60;2.40;;;24.70;70.70;;;;;;4989402;28;20203;-71
2023/07/12 07:16:34;;;;;;;3.40;2.40;;;24.70;70.80;;;;;;4983633;28;20189;-70
2023/07/12 07:19:00;;;;;;;2.97;2.63;;;24.70;70.90;;;;;;4988612;28;20783;-70
2023/07/12 07:21:26;;;;;;;2.90;2.65;;;24.70;70.80;;;;;;4974819;28;20256;-70
2023/07/12 07:23:52;;;;;;;2.80;2.50;;;24.70;71.00;;;;;;5007213;28;20323;-70
2023/07/12 07:26:18;;;;;;;3.47;2.40;;;24.70;70.90;;;;;;4974759;28;20185;-71
2023/07/12 07:28:44;;;;;;;3.10;2.80;;;24.70;70.80;;;;;;5007444;28;20199;-70
2023/07/12 07:31:10;;;;;;;2.70;2.50;;;24.80;71.20;;;;;;4974991;28;20188;-71
2023/07/12 07:33:37;;;;;;;3.17;2.42;;;24.70;71.00;;;;;;4969683;28;20724;-70
2023/07/12 07:36:10;;;;;;;4.50;3.10;;;24.70;70.90;;;;;;4971885;28;20212;-71
2023/07/12 07:38:37;;;;;;;4.05;2.75;;;24.70;70.90;;;;;;4997160;28;20184;-70
2023/07/12 07:41:11;;;;;;;2.88;2.55;;;24.70;70.80;;;;;;4974026;28;20194;-71
2023/07/12 07:43:39;;;;;;;3.25;2.70;;;24.70;70.70;;;;;;4979759;28;20217;-70
2023/07/12 07:46:09;;;;;;;2.40;2.22;;;24.70;70.70;;;;;;4987262;28;20189;-68
2023/07/12 07:48:35;;;;;;;3.88;2.58;;;24.80;70.70;;;;;;4979813;28;20193;-70
2023/07/12 07:51:01;;;;;;;2.83;2.45;;;24.80;70.80;;;;;;4963944;28;20232;-70
2023/07/12 07:53:27;;;;;;;3.25;2.92;;;24.70;70.80;;;;;;4971676;28;20626;-70
2023/07/12 07:55:53;;;;;;;3.33;2.20;;;24.80;70.80;;;;;;4962685;28;20283;-71
2023/07/12 07:58:21;;;;;;;3.10;2.63;;;24.80;70.80;;;;;;4974614;28;20231;-70
2023/07/12 08:00:47;;;;;;;3.05;2.75;;;24.80;70.90;;;;;;4984320;28;20189;-71
2023/07/12 08:03:13;;;;;;;4.13;2.67;;;24.80;71.00;;;;;;4989385;28;20280;-71
2023/07/12 08:05:39;;;;;;;2.60;2.40;;;24.80;71.10;;;;;;4983538;28;20272;-70
2023/07/12 08:08:05;;;;;;;3.28;2.75;;;24.80;71.00;;;;;;4982843;28;20190;-70
2023/07/12 08:10:32;;;;;;;3.03;2.65;;;24.80;71.00;;;;;;4971217;28;20563;-70
2023/07/12 08:12:59;;;;;;;3.00;2.63;;;24.80;71.00;;;;;;4984068;28;20221;-71
2023/07/12 08:15:26;;;;;;;2.80;2.60;;;24.80;70.90;;;;;;4966472;28;20626;-70
2023/07/12 08:17:53;;;;;;;3.05;2.75;;;24.80;70.90;;;;;;4982646;28;20649;-71
2023/07/12 08:20:20;;;;;;;3.97;2.90;;;24.80;70.90;;;;;;4982432;28;20203;-70
2023/07/12 08:22:46;;;;;;;5.20;2.90;;;24.80;71.00;;;;;;5000481;28;20348;-70
2023/07/12 08:25:14;;;;;;;2.92;2.67;;;24.80;70.90;;;;;;4964561;28;20186;-70
2023/07/12 08:27:40;;;;;;;2.75;2.55;;;24.80;70.90;;;;;;4990697;28;20215;-71
2023/07/12 08:30:06;;;;;;;2.88;2.67;;;24.80;71.00;;;;;;4991117;28;20648;-70
2023/07/12 08:32:33;;;;;;;3.70;3.00;;;24.80;70.80;;;;;;4994361;28;20248;-70
2023/07/12 08:35:00;;;;;;;3.38;2.50;;;24.80;70.80;;;;;;4994070;28;20192;-70
2023/07/12 08:37:27;;;;;;;3.03;2.80;;;24.80;71.10;;;;;;4975363;28;20309;-70
2023/07/12 08:39:54;;;;;;;4.65;3.00;;;24.80;71.00;;;;;;5006065;28;20180;-70
2023/07/12 08:42:26;;;;;;;3.75;2.97;;;24.80;71.20;;;;;;4983197;28;20705;-70
2023/07/12 08:44:54;;;;;;;2.88;2.55;;;24.80;71.30;;;;;;4982229;28;20214;-70
2023/07/12 08:47:30;;;;;;;4.15;2.78;;;24.80;71.10;;;;;;4977030;28;20189;-70
2023/07/12 08:49:57;;;;;;;2.72;2.53;;;24.80;71.30;;;;;;4985908;28;20183;-71
2023/07/12 08:52:32;;;;;;;3.08;2.22;;;24.80;71.30;;;;;;4985650;28;20267;-71
2023/07/12 08:55:01;;;;;;;2.58;2.38;;;24.80;71.20;;;;;;4977167;28;20192;-70
2023/07/12 08:57:30;;;;;;;3.17;2.30;;;24.80;71.00;;;;;;4985921;28;20184;-70
2023/07/12 09:00:34;;;;;;;2.60;2.40;;;24.80;70.80;;;;;;4993664;28;20189;-71
2023/07/12 09:02:59;;;;;;;2.78;2.53;;;24.90;70.80;;;;;;4972132;28;20319;-70
2023/07/12 09:05:25;;;;;;;2.70;2.50;;;24.90;70.80;;;;;;4989705;28;20272;-71
2023/07/12 09:08:11;;;;;;;2.72;2.53;;;24.90;70.70;;;;;;4988929;28;20195;-71
2023/07/12 09:10:45;;;;;;;2.63;2.42;;;24.90;70.50;;;;;;4994620;28;20185;-70
2023/07/12 09:13:15;;;;;;;3.10;2.78;;;24.90;70.70;;;;;;4982483;28;20267;-72
2023/07/12 09:15:51;;;;;;;2.70;2.50;;;24.90;70.60;;;;;;4957804;28;20288;-71
2023/07/12 09:18:29;;;;;;;3.42;2.53;;;24.90;70.60;;;;;;4998306;28;20232;-69
2023/07/12 09:21:10;;;;;;;3.22;2.80;;;24.90;70.40;;;;;;5005337;28;20215;-71
2023/07/12 09:23:40;;;;;;;2.47;2.28;;;24.90;70.40;;;;;;4964773;28;20300;-71
2023/07/12 09:26:26;;;;;;;2.78;2.22;;;24.90;70.40;;;;;;4989795;28;20207;-71
2023/07/12 09:29:07;;;;;;;2.80;2.55;;;25.00;70.50;;;;;;5009388;28;20200;-72
2023/07/12 09:31:35;;;;;;;2.70;2.50;;;24.90;70.50;;;;;;5001217;28;20220;-71
2023/07/12 09:34:06;;;;;;;2.80;2.58;;;24.90;70.50;;;;;;4984771;28;20877;-70
2023/07/12 09:36:39;;;;;;;2.72;2.53;;;24.90;70.60;;;;;;4989131;28;20193;-70
2023/07/12 09:39:10;;;;;;;2.65;2.45;;;24.90;70.60;;;;;;4986660;28;20281;-69
2023/07/12 09:41:36;;;;;;;2.72;2.40;;;24.90;70.60;;;;;;4981145;28;20588;-70
2023/07/12 09:44:02;;;;;;;2.58;2.38;;;24.90;70.60;;;;;;4988796;28;20224;-70
2023/07/12 09:46:41;;;;;;;2.88;2.67;;;24.90;70.50;;;;;;4992065;28;20196;-70
2023/07/12 09:49:16;;;;;;;2.60;2.38;;;25.00;70.60;;;;;;4975942;28;20208;-70
2023/07/12 09:52:08;;;;;;;2.40;2.20;;;24.90;70.50;;;;;;4970111;28;20240;-72
2023/07/12 09:54:48;;;;;;;4.13;2.33;;;25.00;70.60;;;;;;4984467;28;20212;-70
2023/07/12 09:57:20;;;;;;;2.90;2.45;;;24.90;70.60;;;;;;5007869;28;20192;-70
2023/07/12 09:59:48;;;;;;;2.75;2.55;;;24.90;70.80;;;;;;5003204;28;20189;-72
2023/07/12 10:03:13;;;;;;;2.85;2.30;;;24.90;70.70;;;;;;4976104;28;20320;-71
2023/07/12 10:06:05;;;;;;;2.72;2.53;;;24.90;70.60;;;;;;4982110;28;20198;-70
2023/07/12 10:09:09;;;;;;;2.80;2.50;;;24.90;70.60;;;;;;4953666;28;20197;-70
2023/07/12 10:11:49;;;;;;;2.38;2.17;;;25.00;70.70;;;;;;4971721;28;20241;-71
2023/07/12 10:14:18;;;;;;;2.65;2.45;;;25.00;70.60;;;;;;4990048;28;20209;-70
2023/07/12 10:16:54;;;;;;;2.40;2.13;;;25.00;70.70;;;;;;4972787;28;20178;-70
2023/07/12 10:19:32;;;;;;;3.53;2.70;;;25.00;70.60;;;;;;4990867;28;20280;-70
2023/07/12 10:22:04;;;;;;;2.20;2.10;;;25.00;70.50;;;;;;4992213;28;20200;-71
2023/07/12 10:24:43;;;;;;;2.40;2.20;;;25.00;70.40;;;;;;4980309;28;20728;-70
2023/07/12 10:27:37;;;;;;;2.95;2.65;;;25.00;70.60;;;;;;4989605;28;20189;-70
2023/07/12 10:30:17;;;;;;;2.40;2.20;;;25.00;70.50;;;;;;4976488;28;20190;-70
2023/07/12 10:32:58;;;;;;;2.47;2.28;;;25.00;70.50;;;;;;4979184;28;20228;-71
2023/07/12 10:35:38;;;;;;;2.97;2.78;;;25.00;70.40;;;;;;4980247;28;20196;-70
2023/07/12 10:38:17;;;;;;;2.50;2.30;;;25.00;70.40;;;;;;4972262;28;20187;-70
2023/07/12 10:41:00;;;;;;;2.72;2.53;;;25.00;70.60;;;;;;4995204;28;20189;-70
2023/07/12 10:43:40;;;;;;;3.00;2.42;;;25.00;70.50;;;;;;4989855;28;20213;-70
2023/07/12 10:46:34;;;;;;;2.90;2.70;;;25.00;70.50;;;;;;4990239;28;20272;-70
2023/07/12 10:49:12;;;;;;;2.55;2.35;;;25.00;70.60;;;;;;5007365;28;20195;-70
2023/07/12 10:52:05;;;;;;;3.13;2.83;;;25.00;70.70;;;;;;4984509;28;20587;-70
2023/07/12 10:54:30;;;;;;;3.13;2.80;;;25.00;70.60;;;;;;4984022;28;20223;-70
2023/07/12 10:57:06;;;;;;;2.50;2.30;;;25.00;70.70;;;;;;5000374;28;20185;-71
2023/07/12 10:59:35;;;;;;;3.35;3.00;;;25.00;70.50;;;;;;4997756;28;20185;-70
2023/07/12 11:02:03;;;;;;;4.80;2.60;;;25.00;70.70;;;;;;4972114;28;20772;-70
2023/07/12 11:04:29;;;;;;;2.60;2.40;;;25.00;70.60;;;;;;4998559;28;20276;-71
2023/07/12 11:07:01;;;;;;;2.88;2.60;;;25.00;70.80;;;;;;4985095;28;20190;-70
2023/07/12 11:09:49;;;;;;;3.45;2.53;;;25.00;70.90;;;;;;4968067;28;20192;-67
2023/07/12 11:12:29;;;;;;;3.13;2.83;;;25.00;70.90;;;;;;5002617;28;20217;-70
2023/07/12 11:15:27;;;;;;;2.65;2.45;;;25.10;71.00;;;;;;4984966;28;20189;-70
2023/07/12 11:18:24;;;;;;;3.53;2.85;;;25.00;71.00;;;;;;4969273;28;20214;-70
2023/07/12 11:21:04;;;;;;;3.17;2.70;;;25.00;70.90;;;;;;4985926;28;20277;-71
2023/07/12 11:23:36;;;;;;;2.95;2.70;;;25.00;70.80;;;;;;5003068;28;20224;-70
2023/07/12 11:26:28;;;;;;;2.80;2.58;;;25.00;71.20;;;;;;5003717;28;20285;-71
2023/07/12 11:29:27;;;;;;;2.70;2.50;;;25.00;71.10;;;;;;4976261;28;20192;-70
2023/07/12 11:32:32;;;;;;;3.03;2.78;;;25.00;71.00;;;;;;4963715;28;20209;-71
2023/07/12 11:35:17;;;;;;;3.50;3.20;;;25.00;71.50;;;;;;4985568;28;20189;-67
2023/07/12 11:37:56;;;;;;;3.22;2.92;;;25.00;71.10;;;;;;4991437;28;20210;-70
2023/07/12 11:40:29;;;;;;;3.58;2.80;;;25.00;71.10;;;;;;4989278;28;20199;-70
2023/07/12 11:42:56;;;;;;;4.63;3.10;;;25.00;71.00;;;;;;4982168;28;20279;-70
2023/07/12 11:45:23;;;;;;;3.25;2.95;;;25.00;71.00;;;;;;4987152;28;20243;-71
2023/07/12 11:47:53;;;;;;;4.10;3.08;;;25.00;71.00;;;;;;4965233;28;20193;-70
2023/07/12 11:50:26;;;;;;;3.28;2.90;;;25.00;71.20;;;;;;4988596;28;20227;-70
2023/07/12 11:52:55;;;;;;;5.80;3.75;;;25.00;71.40;;;;;;4972890;28;20249;-70
2023/07/12 11:55:28;;;;;;;3.47;3.17;;;25.00;71.20;;;;;;4973538;28;20236;-71
2023/07/12 11:57:55;;;;;;;4.03;3.67;;;25.00;71.10;;;;;;4987738;28;20190;-69
2023/07/12 12:00:26;;;;;;;3.85;3.33;;;25.00;71.10;;;;;;4996808;28;20183;-70
2023/07/12 12:02:56;;;;;;;3.60;3.30;;;25.00;71.20;;;;;;4978836;28;20296;-70
2023/07/12 12:05:32;;;;;;;3.60;3.22;;;25.00;71.20;;;;;;4985803;28;20642;-70
2023/07/12 12:08:00;;;;;;;3.63;3.30;;;25.00;71.10;;;;;;4986455;28;20196;-70
2023/07/12 12:10:35;;;;;;;3.72;3.35;;;25.00;71.10;;;;;;5010941;28;20189;-69
2023/07/12 12:13:13;;;;;;;3.75;3.28;;;25.00;71.10;;;;;;4983178;28;20209;-70
2023/07/12 12:15:57;;;;;;;3.90;3.33;;;25.10;71.10;;;;;;4986751;28;20244;-69
2023/07/12 12:18:22;;;;;;;3.53;3.25;;;25.10;71.00;;;;;;4994909;28;20199;-70
2023/07/12 12:21:13;;;;;;;3.95;3.60;;;25.10;71.20;;;;;;4971781;28;20284;-71
2023/07/12 12:23:41;;;;;;;3.60;3.30;;;25.10;71.40;;;;;;4994691;28;20209;-70
2023/07/12 12:26:28;;;;;;;3.70;3.35;;;25.00;71.10;;;;;;4986935;28;20194;-69
2023/07/12 12:29:07;;;;;;;3.42;3.13;;;25.00;71.30;;;;;;4971978;28;20220;-72
2023/07/12 12:31:48;;;;;;;3.53;3.10;;;25.10;71.20;;;;;;4969748;28;20279;-71
2023/07/12 12:34:17;;;;;;;4.07;3.65;;;25.10;71.60;;;;;;4990356;28;20247;-70
2023/07/12 12:37:15;;;;;;;5.25;3.78;;;25.10;71.60;;;;;;4983368;28;20759;-71
2023/07/12 12:39:41;;;;;;;3.42;3.03;;;25.00;71.40;;;;;;4986344;28;20197;-71
2023/07/12 12:42:22;;;;;;;4.00;3.63;;;25.10;71.40;;;;;;4994395;28;20291;-71
2023/07/12 12:44:51;;;;;;;4.10;3.80;;;25.10;71.20;;;;;;4979888;28;20212;-71
2023/07/12 12:47:20;;;;;;;5.30;4.07;;;25.10;71.30;;;;;;4993741;28;20196;-71
2023/07/12 12:49:47;;;;;;;5.55;4.63;;;25.10;71.20;;;;;;4983726;28;20189;-70
2023/07/12 12:52:37;;;;;;;6.50;4.90;;;25.10;71.20;;;;;;4982621;28;20245;-70
2023/07/12 12:55:10;;;;;;;4.35;3.95;;;25.10;71.20;;;;;;4980894;28;20209;-71
2023/07/12 12:57:38;;;;;;;6.32;4.70;;;25.10;71.20;;;;;;4974871;28;20284;-70
2023/07/12 13:02:33;;;;;;;6.60;4.43;;;25.10;71.30;;;;;;4994570;28;20235;-71
2023/07/12 13:04:59;;;;;;;4.28;3.88;;;25.10;71.30;;;;;;4972140;28;20584;-72
2023/07/12 13:07:31;;;;;;;4.65;4.18;;;25.10;71.20;;;;;;4962224;28;20202;-72